sensor_id;sensor_type;location;lat;lon;timestamp;P1;durP1;ratioP1;P2;durP2;ratioP2
72478;SDS011;60658;52.246;5.258;2022-07-21T00:00:12;9.13;;;7.32;;
72478;SDS011;60658;52.246;5.258;2022-07-21T00:01:12;10.07;;;7.30;;
72478;SDS011;60658;52.246;5.258;2022-07-21T00:02:13;9.75;;;7.68;;
72478;SDS011;60658;52.246;5.258;2022-07-21T00:03:14;10.18;;;7.15;;
72478;SDS011;60658;52.246;5.258;2022-07-21T00:04:14;10.27;;;7.80;;
72478;SDS011;60658;52.246;5.258;2022-07-21T00:05:16;10.20;;;7.25;;
72478;SDS011;60658;52.246;5.258;2022-07-21T00:06:16;10.70;;;7.60;;
72478;SDS011;60658;52.246;5.258;2022-07-21T00:07:17;9.27;;;7.47;;
72478;SDS011;60658;52.246;5.258;2022-07-21T00:08:20;10.27;;;7.80;;
72478;SDS011;60658;52.246;5.258;2022-07-21T00:09:21;9.18;;;7.30;;
72478;SDS011;60658;52.246;5.258;2022-07-21T00:10:22;10.45;;;7.97;;
72478;SDS011;60658;52.246;5.258;2022-07-21T00:11:23;10.55;;;7.53;;
72478;SDS011;60658;52.246;5.258;2022-07-21T00:12:28;11.02;;;8.52;;
72478;SDS011;60658;52.246;5.258;2022-07-21T00:13:28;10.32;;;8.25;;
72478;SDS011;60658;52.246;5.258;2022-07-21T00:14:29;9.80;;;7.63;;
72478;SDS011;60658;52.246;5.258;2022-07-21T00:15:32;11.05;;;8.65;;
72478;SDS011;60658;52.246;5.258;2022-07-21T00:16:33;13.00;;;8.30;;
72478;SDS011;60658;52.246;5.258;2022-07-21T00:17:37;10.43;;;8.02;;
72478;SDS011;60658;52.246;5.258;2022-07-21T00:18:37;12.25;;;8.65;;
72478;SDS011;60658;52.246;5.258;2022-07-21T00:19:42;10.00;;;8.65;;
72478;SDS011;60658;52.246;5.258;2022-07-21T00:20:43;11.43;;;8.52;;
72478;SDS011;60658;52.246;5.258;2022-07-21T00:21:43;11.98;;;8.70;;
72478;SDS011;60658;52.246;5.258;2022-07-21T00:22:44;10.50;;;8.45;;
72478;SDS011;60658;52.246;5.258;2022-07-21T00:23:45;12.07;;;8.77;;
72478;SDS011;60658;52.246;5.258;2022-07-21T00:24:45;9.38;;;8.25;;
72478;SDS011;60658;52.246;5.258;2022-07-21T00:25:46;12.38;;;9.38;;
72478;SDS011;60658;52.246;5.258;2022-07-21T00:26:47;11.77;;;8.65;;
72478;SDS011;60658;52.246;5.258;2022-07-21T00:27:49;11.50;;;8.90;;
72478;SDS011;60658;52.246;5.258;2022-07-21T00:28:49;11.48;;;8.85;;
72478;SDS011;60658;52.246;5.258;2022-07-21T00:29:50;14.27;;;9.05;;
72478;SDS011;60658;52.246;5.258;2022-07-21T00:30:51;14.73;;;9.20;;
72478;SDS011;60658;52.246;5.258;2022-07-21T00:31:51;12.57;;;9.63;;
72478;SDS011;60658;52.246;5.258;2022-07-21T00:32:52;12.45;;;9.35;;
72478;SDS011;60658;52.246;5.258;2022-07-21T00:33:53;10.63;;;9.00;;
72478;SDS011;60658;52.246;5.258;2022-07-21T00:34:53;13.65;;;9.68;;
72478;SDS011;60658;52.246;5.258;2022-07-21T00:35:54;15.05;;;9.95;;
72478;SDS011;60658;52.246;5.258;2022-07-21T00:36:56;12.57;;;10.23;;
72478;SDS011;60658;52.246;5.258;2022-07-21T00:37:57;12.30;;;9.70;;
72478;SDS011;60658;52.246;5.258;2022-07-21T00:38:58;13.52;;;10.15;;
72478;SDS011;60658;52.246;5.258;2022-07-21T00:39:58;11.27;;;9.85;;
72478;SDS011;60658;52.246;5.258;2022-07-21T00:40:59;13.00;;;10.13;;
72478;SDS011;60658;52.246;5.258;2022-07-21T00:42:00;13.80;;;9.85;;
72478;SDS011;60658;52.246;5.258;2022-07-21T00:43:02;13.90;;;10.13;;
72478;SDS011;60658;52.246;5.258;2022-07-21T00:44:03;12.18;;;10.43;;
72478;SDS011;60658;52.246;5.258;2022-07-21T00:45:07;13.25;;;10.27;;
72478;SDS011;60658;52.246;5.258;2022-07-21T00:46:08;14.00;;;10.43;;
72478;SDS011;60658;52.246;5.258;2022-07-21T00:47:09;13.05;;;10.30;;
72478;SDS011;60658;52.246;5.258;2022-07-21T00:48:10;14.30;;;11.10;;
72478;SDS011;60658;52.246;5.258;2022-07-21T00:49:11;12.82;;;10.45;;
72478;SDS011;60658;52.246;5.258;2022-07-21T00:50:12;12.52;;;10.18;;
72478;SDS011;60658;52.246;5.258;2022-07-21T00:51:13;12.63;;;10.13;;
72478;SDS011;60658;52.246;5.258;2022-07-21T00:52:14;12.32;;;10.48;;
72478;SDS011;60658;52.246;5.258;2022-07-21T00:53:14;12.27;;;10.00;;
72478;SDS011;60658;52.246;5.258;2022-07-21T00:54:15;12.15;;;9.35;;
72478;SDS011;60658;52.246;5.258;2022-07-21T00:55:17;12.05;;;9.43;;
72478;SDS011;60658;52.246;5.258;2022-07-21T00:56:19;13.90;;;10.23;;
72478;SDS011;60658;52.246;5.258;2022-07-21T00:57:25;12.63;;;9.48;;
72478;SDS011;60658;52.246;5.258;2022-07-21T00:58:28;12.82;;;9.95;;
72478;SDS011;60658;52.246;5.258;2022-07-21T00:59:28;13.20;;;9.32;;
72478;SDS011;60658;52.246;5.258;2022-07-21T01:00:29;12.55;;;9.80;;
72478;SDS011;60658;52.246;5.258;2022-07-21T01:01:30;11.95;;;10.23;;
72478;SDS011;60658;52.246;5.258;2022-07-21T01:02:31;13.20;;;10.10;;
72478;SDS011;60658;52.246;5.258;2022-07-21T01:03:31;15.10;;;10.90;;
72478;SDS011;60658;52.246;5.258;2022-07-21T01:04:32;15.13;;;10.55;;
72478;SDS011;60658;52.246;5.258;2022-07-21T01:05:35;14.60;;;10.90;;
72478;SDS011;60658;52.246;5.258;2022-07-21T01:06:36;14.35;;;10.82;;
72478;SDS011;60658;52.246;5.258;2022-07-21T01:07:37;14.23;;;10.70;;
72478;SDS011;60658;52.246;5.258;2022-07-21T01:08:37;13.65;;;10.50;;
72478;SDS011;60658;52.246;5.258;2022-07-21T01:09:38;12.48;;;10.20;;
72478;SDS011;60658;52.246;5.258;2022-07-21T01:10:39;12.00;;;10.20;;
72478;SDS011;60658;52.246;5.258;2022-07-21T01:11:39;15.13;;;11.57;;
72478;SDS011;60658;52.246;5.258;2022-07-21T01:12:40;13.10;;;10.20;;
72478;SDS011;60658;52.246;5.258;2022-07-21T01:13:42;13.30;;;9.73;;
72478;SDS011;60658;52.246;5.258;2022-07-21T01:14:46;14.57;;;11.00;;
72478;SDS011;60658;52.246;5.258;2022-07-21T01:15:49;13.63;;;10.57;;
72478;SDS011;60658;52.246;5.258;2022-07-21T01:16:50;13.25;;;10.13;;
72478;SDS011;60658;52.246;5.258;2022-07-21T01:17:51;13.52;;;10.75;;
72478;SDS011;60658;52.246;5.258;2022-07-21T01:18:54;12.95;;;10.38;;
72478;SDS011;60658;52.246;5.258;2022-07-21T01:19:59;14.00;;;11.10;;
72478;SDS011;60658;52.246;5.258;2022-07-21T01:21:03;14.18;;;11.30;;
72478;SDS011;60658;52.246;5.258;2022-07-21T01:22:09;14.68;;;10.60;;
72478;SDS011;60658;52.246;5.258;2022-07-21T01:23:15;16.15;;;11.60;;
72478;SDS011;60658;52.246;5.258;2022-07-21T01:24:18;15.48;;;11.00;;
72478;SDS011;60658;52.246;5.258;2022-07-21T01:25:20;14.32;;;10.30;;
72478;SDS011;60658;52.246;5.258;2022-07-21T01:26:20;14.90;;;10.77;;
72478;SDS011;60658;52.246;5.258;2022-07-21T01:27:25;14.60;;;10.80;;
72478;SDS011;60658;52.246;5.258;2022-07-21T01:28:26;14.30;;;10.93;;
72478;SDS011;60658;52.246;5.258;2022-07-21T01:29:26;13.90;;;10.48;;
72478;SDS011;60658;52.246;5.258;2022-07-21T01:30:27;12.23;;;10.13;;
72478;SDS011;60658;52.246;5.258;2022-07-21T01:31:27;14.25;;;11.05;;
72478;SDS011;60658;52.246;5.258;2022-07-21T01:32:28;13.13;;;10.93;;
72478;SDS011;60658;52.246;5.258;2022-07-21T01:33:32;14.13;;;11.55;;
72478;SDS011;60658;52.246;5.258;2022-07-21T01:34:32;14.00;;;10.85;;
72478;SDS011;60658;52.246;5.258;2022-07-21T01:35:33;14.27;;;10.98;;
72478;SDS011;60658;52.246;5.258;2022-07-21T01:36:34;14.10;;;11.07;;
72478;SDS011;60658;52.246;5.258;2022-07-21T01:37:37;13.32;;;11.07;;
72478;SDS011;60658;52.246;5.258;2022-07-21T01:38:38;14.23;;;11.20;;
72478;SDS011;60658;52.246;5.258;2022-07-21T01:39:38;15.38;;;11.48;;
72478;SDS011;60658;52.246;5.258;2022-07-21T01:40:39;15.85;;;11.30;;
72478;SDS011;60658;52.246;5.258;2022-07-21T01:41:40;13.07;;;10.73;;
72478;SDS011;60658;52.246;5.258;2022-07-21T01:42:40;15.43;;;11.10;;
72478;SDS011;60658;52.246;5.258;2022-07-21T01:43:44;15.57;;;11.52;;
72478;SDS011;60658;52.246;5.258;2022-07-21T01:44:44;15.75;;;11.55;;
72478;SDS011;60658;52.246;5.258;2022-07-21T01:45:45;14.40;;;10.93;;
72478;SDS011;60658;52.246;5.258;2022-07-21T01:46:48;13.80;;;10.43;;
72478;SDS011;60658;52.246;5.258;2022-07-21T01:47:49;13.85;;;11.38;;
72478;SDS011;60658;52.246;5.258;2022-07-21T01:48:49;15.15;;;10.45;;
72478;SDS011;60658;52.246;5.258;2022-07-21T01:49:50;13.63;;;10.27;;
72478;SDS011;60658;52.246;5.258;2022-07-21T01:50:51;14.70;;;11.02;;
72478;SDS011;60658;52.246;5.258;2022-07-21T01:51:53;13.13;;;10.55;;
72478;SDS011;60658;52.246;5.258;2022-07-21T01:52:58;13.75;;;10.88;;
72478;SDS011;60658;52.246;5.258;2022-07-21T01:53:59;14.65;;;10.45;;
72478;SDS011;60658;52.246;5.258;2022-07-21T01:55:03;13.68;;;10.68;;
72478;SDS011;60658;52.246;5.258;2022-07-21T01:56:04;12.82;;;10.02;;
72478;SDS011;60658;52.246;5.258;2022-07-21T01:57:05;14.35;;;10.05;;
72478;SDS011;60658;52.246;5.258;2022-07-21T01:58:06;15.57;;;10.65;;
72478;SDS011;60658;52.246;5.258;2022-07-21T01:59:06;15.07;;;11.23;;
72478;SDS011;60658;52.246;5.258;2022-07-21T02:00:10;13.50;;;10.65;;
72478;SDS011;60658;52.246;5.258;2022-07-21T02:01:11;12.57;;;9.98;;
72478;SDS011;60658;52.246;5.258;2022-07-21T02:02:14;13.95;;;10.65;;
72478;SDS011;60658;52.246;5.258;2022-07-21T02:03:15;12.80;;;10.85;;
72478;SDS011;60658;52.246;5.258;2022-07-21T02:04:16;13.73;;;10.88;;
72478;SDS011;60658;52.246;5.258;2022-07-21T02:05:19;14.50;;;10.77;;
72478;SDS011;60658;52.246;5.258;2022-07-21T02:06:19;14.23;;;10.85;;
72478;SDS011;60658;52.246;5.258;2022-07-21T02:07:20;12.93;;;10.27;;
72478;SDS011;60658;52.246;5.258;2022-07-21T02:08:22;14.90;;;10.85;;
72478;SDS011;60658;52.246;5.258;2022-07-21T02:09:23;13.50;;;10.35;;
72478;SDS011;60658;52.246;5.258;2022-07-21T02:10:23;13.23;;;10.43;;
72478;SDS011;60658;52.246;5.258;2022-07-21T02:11:24;13.82;;;10.23;;
72478;SDS011;60658;52.246;5.258;2022-07-21T02:12:25;13.32;;;10.38;;
72478;SDS011;60658;52.246;5.258;2022-07-21T02:13:26;12.05;;;9.85;;
72478;SDS011;60658;52.246;5.258;2022-07-21T02:14:27;13.95;;;10.45;;
72478;SDS011;60658;52.246;5.258;2022-07-21T02:15:27;14.55;;;10.55;;
72478;SDS011;60658;52.246;5.258;2022-07-21T02:16:28;15.52;;;10.43;;
72478;SDS011;60658;52.246;5.258;2022-07-21T02:17:28;13.43;;;10.55;;
72478;SDS011;60658;52.246;5.258;2022-07-21T02:18:29;12.93;;;10.60;;
72478;SDS011;60658;52.246;5.258;2022-07-21T02:19:30;12.30;;;10.13;;
72478;SDS011;60658;52.246;5.258;2022-07-21T02:20:33;12.60;;;10.52;;
72478;SDS011;60658;52.246;5.258;2022-07-21T02:21:34;13.98;;;10.73;;
72478;SDS011;60658;52.246;5.258;2022-07-21T02:22:37;15.35;;;11.18;;
72478;SDS011;60658;52.246;5.258;2022-07-21T02:23:39;14.15;;;10.93;;
72478;SDS011;60658;52.246;5.258;2022-07-21T02:24:40;14.10;;;10.82;;
72478;SDS011;60658;52.246;5.258;2022-07-21T02:25:41;14.18;;;10.50;;
72478;SDS011;60658;52.246;5.258;2022-07-21T02:26:44;12.55;;;10.30;;
72478;SDS011;60658;52.246;5.258;2022-07-21T02:27:45;12.65;;;10.07;;
72478;SDS011;60658;52.246;5.258;2022-07-21T02:28:52;12.88;;;9.88;;
72478;SDS011;60658;52.246;5.258;2022-07-21T02:29:56;13.80;;;10.73;;
72478;SDS011;60658;52.246;5.258;2022-07-21T02:30:59;11.40;;;9.82;;
72478;SDS011;60658;52.246;5.258;2022-07-21T02:32:02;11.82;;;9.68;;
72478;SDS011;60658;52.246;5.258;2022-07-21T02:33:06;11.80;;;9.40;;
72478;SDS011;60658;52.246;5.258;2022-07-21T02:34:07;13.13;;;10.10;;
72478;SDS011;60658;52.246;5.258;2022-07-21T02:35:10;12.48;;;10.25;;
72478;SDS011;60658;52.246;5.258;2022-07-21T02:36:11;12.98;;;9.70;;
72478;SDS011;60658;52.246;5.258;2022-07-21T02:37:12;12.43;;;9.93;;
72478;SDS011;60658;52.246;5.258;2022-07-21T02:38:12;13.57;;;10.18;;
72478;SDS011;60658;52.246;5.258;2022-07-21T02:39:14;12.93;;;10.32;;
72478;SDS011;60658;52.246;5.258;2022-07-21T02:40:15;12.70;;;10.20;;
72478;SDS011;60658;52.246;5.258;2022-07-21T02:41:16;13.95;;;10.55;;
72478;SDS011;60658;52.246;5.258;2022-07-21T02:42:17;16.73;;;10.40;;
72478;SDS011;60658;52.246;5.258;2022-07-21T02:43:17;11.70;;;9.65;;
72478;SDS011;60658;52.246;5.258;2022-07-21T02:44:18;12.95;;;9.38;;
72478;SDS011;60658;52.246;5.258;2022-07-21T02:45:19;13.18;;;10.18;;
72478;SDS011;60658;52.246;5.258;2022-07-21T02:46:19;12.80;;;10.23;;
72478;SDS011;60658;52.246;5.258;2022-07-21T02:47:20;15.20;;;10.85;;
72478;SDS011;60658;52.246;5.258;2022-07-21T02:48:20;13.27;;;10.55;;
72478;SDS011;60658;52.246;5.258;2022-07-21T02:49:21;13.45;;;10.32;;
72478;SDS011;60658;52.246;5.258;2022-07-21T02:50:22;13.05;;;10.45;;
72478;SDS011;60658;52.246;5.258;2022-07-21T02:51:23;12.30;;;10.05;;
72478;SDS011;60658;52.246;5.258;2022-07-21T02:52:23;12.88;;;11.18;;
72478;SDS011;60658;52.246;5.258;2022-07-21T02:53:26;14.10;;;9.93;;
72478;SDS011;60658;52.246;5.258;2022-07-21T02:54:28;12.68;;;10.02;;
72478;SDS011;60658;52.246;5.258;2022-07-21T02:55:29;14.00;;;11.05;;
72478;SDS011;60658;52.246;5.258;2022-07-21T02:56:30;14.18;;;10.10;;
72478;SDS011;60658;52.246;5.258;2022-07-21T02:57:30;13.07;;;9.77;;
72478;SDS011;60658;52.246;5.258;2022-07-21T02:58:31;12.75;;;9.68;;
72478;SDS011;60658;52.246;5.258;2022-07-21T02:59:32;13.75;;;10.10;;
72478;SDS011;60658;52.246;5.258;2022-07-21T03:00:33;14.50;;;10.25;;
72478;SDS011;60658;52.246;5.258;2022-07-21T03:01:33;12.95;;;10.55;;
72478;SDS011;60658;52.246;5.258;2022-07-21T03:02:34;14.43;;;10.23;;
72478;SDS011;60658;52.246;5.258;2022-07-21T03:03:35;12.60;;;10.27;;
72478;SDS011;60658;52.246;5.258;2022-07-21T03:04:36;13.65;;;9.82;;
72478;SDS011;60658;52.246;5.258;2022-07-21T03:05:52;13.88;;;10.27;;
72478;SDS011;60658;52.246;5.258;2022-07-21T03:06:55;13.02;;;10.30;;
72478;SDS011;60658;52.246;5.258;2022-07-21T03:07:56;13.20;;;10.25;;
72478;SDS011;60658;52.246;5.258;2022-07-21T03:08:57;14.85;;;10.60;;
72478;SDS011;60658;52.246;5.258;2022-07-21T03:10:01;16.38;;;11.35;;
72478;SDS011;60658;52.246;5.258;2022-07-21T03:11:01;15.73;;;11.23;;
72478;SDS011;60658;52.246;5.258;2022-07-21T03:12:02;17.30;;;11.73;;
72478;SDS011;60658;52.246;5.258;2022-07-21T03:13:06;15.27;;;10.90;;
72478;SDS011;60658;52.246;5.258;2022-07-21T03:14:07;16.38;;;11.50;;
72478;SDS011;60658;52.246;5.258;2022-07-21T03:15:11;15.05;;;11.32;;
72478;SDS011;60658;52.246;5.258;2022-07-21T03:16:12;15.25;;;10.88;;
72478;SDS011;60658;52.246;5.258;2022-07-21T03:17:13;15.48;;;10.60;;
72478;SDS011;60658;52.246;5.258;2022-07-21T03:18:15;15.55;;;11.50;;
72478;SDS011;60658;52.246;5.258;2022-07-21T03:19:16;15.07;;;11.45;;
72478;SDS011;60658;52.246;5.258;2022-07-21T03:20:17;15.73;;;11.55;;
72478;SDS011;60658;52.246;5.258;2022-07-21T03:21:18;14.73;;;11.40;;
72478;SDS011;60658;52.246;5.258;2022-07-21T03:22:18;16.38;;;11.73;;
72478;SDS011;60658;52.246;5.258;2022-07-21T03:23:22;15.82;;;11.43;;
72478;SDS011;60658;52.246;5.258;2022-07-21T03:24:25;16.98;;;12.35;;
72478;SDS011;60658;52.246;5.258;2022-07-21T03:25:27;20.25;;;13.00;;
72478;SDS011;60658;52.246;5.258;2022-07-21T03:26:27;17.08;;;12.90;;
72478;SDS011;60658;52.246;5.258;2022-07-21T03:27:28;16.45;;;12.38;;
72478;SDS011;60658;52.246;5.258;2022-07-21T03:28:29;18.52;;;14.10;;
72478;SDS011;60658;52.246;5.258;2022-07-21T03:29:29;20.08;;;14.05;;
72478;SDS011;60658;52.246;5.258;2022-07-21T03:30:30;17.73;;;13.18;;
72478;SDS011;60658;52.246;5.258;2022-07-21T03:31:34;19.48;;;14.05;;
72478;SDS011;60658;52.246;5.258;2022-07-21T03:32:34;19.05;;;13.75;;
72478;SDS011;60658;52.246;5.258;2022-07-21T03:33:35;16.17;;;12.93;;
72478;SDS011;60658;52.246;5.258;2022-07-21T03:34:36;17.23;;;12.63;;
72478;SDS011;60658;52.246;5.258;2022-07-21T03:35:36;17.92;;;13.27;;
72478;SDS011;60658;52.246;5.258;2022-07-21T03:36:37;18.20;;;12.82;;
72478;SDS011;60658;52.246;5.258;2022-07-21T03:37:41;16.80;;;12.90;;
72478;SDS011;60658;52.246;5.258;2022-07-21T03:38:42;16.58;;;12.85;;
72478;SDS011;60658;52.246;5.258;2022-07-21T03:39:42;17.70;;;11.98;;
72478;SDS011;60658;52.246;5.258;2022-07-21T03:40:44;18.83;;;13.15;;
72478;SDS011;60658;52.246;5.258;2022-07-21T03:41:45;17.90;;;12.80;;
72478;SDS011;60658;52.246;5.258;2022-07-21T03:42:46;16.20;;;11.93;;
72478;SDS011;60658;52.246;5.258;2022-07-21T03:43:46;15.55;;;12.55;;
72478;SDS011;60658;52.246;5.258;2022-07-21T03:44:47;15.75;;;11.77;;
72478;SDS011;60658;52.246;5.258;2022-07-21T03:45:48;16.10;;;12.73;;
72478;SDS011;60658;52.246;5.258;2022-07-21T03:46:48;17.90;;;12.25;;
72478;SDS011;60658;52.246;5.258;2022-07-21T03:47:49;16.02;;;12.13;;
72478;SDS011;60658;52.246;5.258;2022-07-21T03:48:50;18.70;;;13.50;;
72478;SDS011;60658;52.246;5.258;2022-07-21T03:49:51;19.63;;;13.13;;
72478;SDS011;60658;52.246;5.258;2022-07-21T03:50:51;19.45;;;14.00;;
72478;SDS011;60658;52.246;5.258;2022-07-21T03:51:52;20.45;;;13.77;;
72478;SDS011;60658;52.246;5.258;2022-07-21T03:52:53;18.70;;;12.68;;
72478;SDS011;60658;52.246;5.258;2022-07-21T03:53:53;20.10;;;13.32;;
72478;SDS011;60658;52.246;5.258;2022-07-21T03:54:57;18.63;;;13.20;;
72478;SDS011;60658;52.246;5.258;2022-07-21T03:55:59;20.23;;;13.95;;
72478;SDS011;60658;52.246;5.258;2022-07-21T03:56:59;20.85;;;13.95;;
72478;SDS011;60658;52.246;5.258;2022-07-21T03:58:01;16.92;;;13.00;;
72478;SDS011;60658;52.246;5.258;2022-07-21T03:59:02;18.67;;;12.88;;
72478;SDS011;60658;52.246;5.258;2022-07-21T04:00:04;17.42;;;12.88;;
72478;SDS011;60658;52.246;5.258;2022-07-21T04:01:05;15.13;;;11.77;;
72478;SDS011;60658;52.246;5.258;2022-07-21T04:02:06;18.52;;;13.10;;
72478;SDS011;60658;52.246;5.258;2022-07-21T04:03:06;19.25;;;13.90;;
72478;SDS011;60658;52.246;5.258;2022-07-21T04:04:07;17.05;;;12.75;;
72478;SDS011;60658;52.246;5.258;2022-07-21T04:05:08;19.00;;;13.25;;
72478;SDS011;60658;52.246;5.258;2022-07-21T04:06:09;18.35;;;13.02;;
72478;SDS011;60658;52.246;5.258;2022-07-21T04:07:10;19.50;;;13.50;;
72478;SDS011;60658;52.246;5.258;2022-07-21T04:08:10;20.23;;;13.27;;
72478;SDS011;60658;52.246;5.258;2022-07-21T04:09:11;16.52;;;12.20;;
72478;SDS011;60658;52.246;5.258;2022-07-21T04:10:12;18.98;;;13.07;;
72478;SDS011;60658;52.246;5.258;2022-07-21T04:11:14;17.23;;;13.05;;
72478;SDS011;60658;52.246;5.258;2022-07-21T04:12:15;18.50;;;13.35;;
72478;SDS011;60658;52.246;5.258;2022-07-21T04:13:16;18.08;;;12.90;;
72478;SDS011;60658;52.246;5.258;2022-07-21T04:14:16;16.17;;;12.65;;
72478;SDS011;60658;52.246;5.258;2022-07-21T04:15:17;19.88;;;13.65;;
72478;SDS011;60658;52.246;5.258;2022-07-21T04:16:18;18.02;;;13.40;;
72478;SDS011;60658;52.246;5.258;2022-07-21T04:17:18;19.77;;;13.52;;
72478;SDS011;60658;52.246;5.258;2022-07-21T04:18:19;18.20;;;13.93;;
72478;SDS011;60658;52.246;5.258;2022-07-21T04:19:20;19.55;;;13.48;;
72478;SDS011;60658;52.246;5.258;2022-07-21T04:20:20;19.17;;;13.70;;
72478;SDS011;60658;52.246;5.258;2022-07-21T04:21:21;19.45;;;13.70;;
72478;SDS011;60658;52.246;5.258;2022-07-21T04:22:22;18.73;;;13.75;;
72478;SDS011;60658;52.246;5.258;2022-07-21T04:23:22;20.92;;;15.20;;
72478;SDS011;60658;52.246;5.258;2022-07-21T04:24:23;18.98;;;13.77;;
72478;SDS011;60658;52.246;5.258;2022-07-21T04:25:26;18.30;;;13.13;;
72478;SDS011;60658;52.246;5.258;2022-07-21T04:26:31;23.15;;;14.73;;
72478;SDS011;60658;52.246;5.258;2022-07-21T04:27:32;21.13;;;14.13;;
72478;SDS011;60658;52.246;5.258;2022-07-21T04:28:35;20.42;;;14.30;;
72478;SDS011;60658;52.246;5.258;2022-07-21T04:29:36;22.25;;;14.88;;
72478;SDS011;60658;52.246;5.258;2022-07-21T04:30:39;21.40;;;13.93;;
72478;SDS011;60658;52.246;5.258;2022-07-21T04:31:39;21.27;;;14.85;;
72478;SDS011;60658;52.246;5.258;2022-07-21T04:32:40;22.83;;;15.32;;
72478;SDS011;60658;52.246;5.258;2022-07-21T04:33:41;21.40;;;15.27;;
72478;SDS011;60658;52.246;5.258;2022-07-21T04:34:41;22.73;;;14.82;;
72478;SDS011;60658;52.246;5.258;2022-07-21T04:35:42;22.58;;;14.57;;
72478;SDS011;60658;52.246;5.258;2022-07-21T04:36:43;22.45;;;15.52;;
72478;SDS011;60658;52.246;5.258;2022-07-21T04:37:43;20.55;;;15.45;;
72478;SDS011;60658;52.246;5.258;2022-07-21T04:38:44;20.40;;;15.20;;
72478;SDS011;60658;52.246;5.258;2022-07-21T04:39:45;21.60;;;15.32;;
72478;SDS011;60658;52.246;5.258;2022-07-21T04:40:45;21.85;;;14.65;;
72478;SDS011;60658;52.246;5.258;2022-07-21T04:41:48;21.45;;;15.60;;
72478;SDS011;60658;52.246;5.258;2022-07-21T04:42:48;22.08;;;15.43;;
72478;SDS011;60658;52.246;5.258;2022-07-21T04:43:49;20.02;;;14.55;;
72478;SDS011;60658;52.246;5.258;2022-07-21T04:44:55;23.58;;;15.23;;
72478;SDS011;60658;52.246;5.258;2022-07-21T04:45:55;21.83;;;15.48;;
72478;SDS011;60658;52.246;5.258;2022-07-21T04:46:56;22.55;;;15.07;;
72478;SDS011;60658;52.246;5.258;2022-07-21T04:48:00;21.13;;;15.23;;
72478;SDS011;60658;52.246;5.258;2022-07-21T04:49:01;23.42;;;15.77;;
72478;SDS011;60658;52.246;5.258;2022-07-21T04:50:02;20.48;;;14.57;;
72478;SDS011;60658;52.246;5.258;2022-07-21T04:51:03;19.45;;;14.50;;
72478;SDS011;60658;52.246;5.258;2022-07-21T04:52:03;21.40;;;15.35;;
72478;SDS011;60658;52.246;5.258;2022-07-21T04:53:04;21.25;;;14.45;;
72478;SDS011;60658;52.246;5.258;2022-07-21T04:54:05;22.33;;;15.18;;
72478;SDS011;60658;52.246;5.258;2022-07-21T04:55:06;20.48;;;14.07;;
72478;SDS011;60658;52.246;5.258;2022-07-21T04:56:07;21.38;;;14.05;;
72478;SDS011;60658;52.246;5.258;2022-07-21T04:57:09;21.73;;;15.23;;
72478;SDS011;60658;52.246;5.258;2022-07-21T04:58:09;20.55;;;15.27;;
72478;SDS011;60658;52.246;5.258;2022-07-21T04:59:10;22.80;;;16.25;;
72478;SDS011;60658;52.246;5.258;2022-07-21T05:00:12;23.13;;;16.42;;
72478;SDS011;60658;52.246;5.258;2022-07-21T05:01:13;22.60;;;16.00;;
72478;SDS011;60658;52.246;5.258;2022-07-21T05:02:16;23.48;;;16.38;;
72478;SDS011;60658;52.246;5.258;2022-07-21T05:03:17;21.50;;;15.30;;
72478;SDS011;60658;52.246;5.258;2022-07-21T05:04:18;21.65;;;15.20;;
72478;SDS011;60658;52.246;5.258;2022-07-21T05:05:18;22.15;;;15.30;;
72478;SDS011;60658;52.246;5.258;2022-07-21T05:06:19;20.88;;;15.38;;
72478;SDS011;60658;52.246;5.258;2022-07-21T05:07:20;23.13;;;16.45;;
72478;SDS011;60658;52.246;5.258;2022-07-21T05:08:20;24.80;;;17.05;;
72478;SDS011;60658;52.246;5.258;2022-07-21T05:09:21;21.00;;;14.43;;
72478;SDS011;60658;52.246;5.258;2022-07-21T05:10:22;23.85;;;16.40;;
72478;SDS011;60658;52.246;5.258;2022-07-21T05:11:22;21.48;;;15.00;;
72478;SDS011;60658;52.246;5.258;2022-07-21T05:12:30;21.85;;;15.90;;
72478;SDS011;60658;52.246;5.258;2022-07-21T05:13:31;24.55;;;16.42;;
72478;SDS011;60658;52.246;5.258;2022-07-21T05:14:31;23.38;;;16.00;;
72478;SDS011;60658;52.246;5.258;2022-07-21T05:15:32;23.17;;;16.90;;
72478;SDS011;60658;52.246;5.258;2022-07-21T05:16:33;22.63;;;16.77;;
72478;SDS011;60658;52.246;5.258;2022-07-21T05:17:33;24.10;;;17.48;;
72478;SDS011;60658;52.246;5.258;2022-07-21T05:18:36;25.25;;;17.70;;
72478;SDS011;60658;52.246;5.258;2022-07-21T05:19:37;26.10;;;17.48;;
72478;SDS011;60658;52.246;5.258;2022-07-21T05:20:38;25.83;;;17.08;;
72478;SDS011;60658;52.246;5.258;2022-07-21T05:21:38;25.45;;;17.85;;
72478;SDS011;60658;52.246;5.258;2022-07-21T05:22:39;26.00;;;18.13;;
72478;SDS011;60658;52.246;5.258;2022-07-21T05:23:40;24.52;;;17.25;;
72478;SDS011;60658;52.246;5.258;2022-07-21T05:24:40;29.77;;;18.45;;
72478;SDS011;60658;52.246;5.258;2022-07-21T05:25:41;25.25;;;17.33;;
72478;SDS011;60658;52.246;5.258;2022-07-21T05:26:41;25.23;;;17.80;;
72478;SDS011;60658;52.246;5.258;2022-07-21T05:27:44;24.65;;;17.30;;
72478;SDS011;60658;52.246;5.258;2022-07-21T05:28:44;26.05;;;18.50;;
72478;SDS011;60658;52.246;5.258;2022-07-21T05:29:45;25.27;;;18.13;;
72478;SDS011;60658;52.246;5.258;2022-07-21T05:30:46;23.17;;;17.50;;
72478;SDS011;60658;52.246;5.258;2022-07-21T05:31:46;24.65;;;17.25;;
72478;SDS011;60658;52.246;5.258;2022-07-21T05:32:47;24.50;;;17.42;;
72478;SDS011;60658;52.246;5.258;2022-07-21T05:33:48;24.67;;;17.77;;
72478;SDS011;60658;52.246;5.258;2022-07-21T05:34:51;23.30;;;16.70;;
72478;SDS011;60658;52.246;5.258;2022-07-21T05:36:03;24.23;;;17.48;;
72478;SDS011;60658;52.246;5.258;2022-07-21T05:37:07;24.02;;;16.83;;
72478;SDS011;60658;52.246;5.258;2022-07-21T05:38:08;24.65;;;18.50;;
72478;SDS011;60658;52.246;5.258;2022-07-21T05:39:12;23.95;;;17.35;;
72478;SDS011;60658;52.246;5.258;2022-07-21T05:40:13;25.67;;;17.95;;
72478;SDS011;60658;52.246;5.258;2022-07-21T05:41:26;26.05;;;17.63;;
72478;SDS011;60658;52.246;5.258;2022-07-21T05:42:47;27.05;;;18.40;;
72478;SDS011;60658;52.246;5.258;2022-07-21T05:44:03;26.02;;;17.65;;
72478;SDS011;60658;52.246;5.258;2022-07-21T05:48:01;23.73;;;16.70;;
72478;SDS011;60658;52.246;5.258;2022-07-21T05:48:31;25.63;;;16.67;;
72478;SDS011;60658;52.246;5.258;2022-07-21T05:54:11;26.90;;;17.35;;
72478;SDS011;60658;52.246;5.258;2022-07-21T05:56:25;26.48;;;17.25;;
72478;SDS011;60658;52.246;5.258;2022-07-21T05:57:31;27.63;;;19.17;;
72478;SDS011;60658;52.246;5.258;2022-07-21T05:58:35;24.95;;;19.10;;
72478;SDS011;60658;52.246;5.258;2022-07-21T05:59:37;29.17;;;19.25;;
72478;SDS011;60658;52.246;5.258;2022-07-21T06:00:38;26.92;;;18.35;;
72478;SDS011;60658;52.246;5.258;2022-07-21T06:01:38;27.65;;;19.98;;
72478;SDS011;60658;52.246;5.258;2022-07-21T06:03:17;28.58;;;19.70;;
72478;SDS011;60658;52.246;5.258;2022-07-21T06:04:17;29.58;;;19.17;;
72478;SDS011;60658;52.246;5.258;2022-07-21T06:05:18;28.42;;;19.17;;
72478;SDS011;60658;52.246;5.258;2022-07-21T06:06:19;27.63;;;18.67;;
72478;SDS011;60658;52.246;5.258;2022-07-21T06:08:41;29.70;;;19.15;;
72478;SDS011;60658;52.246;5.258;2022-07-21T06:09:43;29.65;;;19.63;;
72478;SDS011;60658;52.246;5.258;2022-07-21T06:10:49;27.00;;;18.92;;